createdAt,value
2018-09-28T00:00:43.483Z,14.90
2018-09-28T00:03:11.823Z,14.90
2018-09-28T00:05:40.237Z,14.80
2018-09-28T00:08:08.584Z,14.80
2018-09-28T00:10:36.897Z,14.80
2018-09-28T00:13:05.243Z,14.80
2018-09-28T00:15:33.612Z,14.70
2018-09-28T00:18:01.942Z,14.70
2018-09-28T00:20:30.282Z,14.70
2018-09-28T00:22:58.637Z,14.60
2018-09-28T00:25:26.986Z,14.60
2018-09-28T00:27:55.399Z,14.50
2018-09-28T00:30:23.712Z,14.50
2018-09-28T00:32:52.010Z,14.50
2018-09-28T00:35:20.344Z,14.50
2018-09-28T00:37:48.678Z,14.40
2018-09-28T00:40:16.985Z,14.40
2018-09-28T00:42:45.298Z,14.40
2018-09-28T00:45:13.661Z,14.40
2018-09-28T00:47:42.077Z,14.30
2018-09-28T00:50:10.421Z,14.30
2018-09-28T00:52:38.706Z,14.20
2018-09-28T00:55:07.215Z,14.10
2018-09-28T00:57:35.543Z,14.00
2018-09-28T01:00:03.951Z,14.00
2018-09-28T01:02:32.294Z,14.00
2018-09-28T01:05:00.631Z,14.00
2018-09-28T01:07:28.950Z,13.90
2018-09-28T01:09:57.262Z,13.90
2018-09-28T01:12:25.572Z,13.90
2018-09-28T01:14:54.082Z,13.90
2018-09-28T01:17:22.466Z,13.80
2018-09-28T01:19:50.834Z,13.80
2018-09-28T01:22:19.134Z,13.70
2018-09-28T01:24:47.447Z,13.70
2018-09-28T01:27:15.816Z,13.60
2018-09-28T01:29:44.175Z,13.60
2018-09-28T01:32:12.515Z,13.60
2018-09-28T01:34:40.871Z,13.50
2018-09-28T01:37:09.278Z,13.50
2018-09-28T01:39:37.650Z,13.50
2018-09-28T01:42:06.031Z,13.50
2018-09-28T01:44:34.369Z,13.40
2018-09-28T01:47:02.661Z,13.40
2018-09-28T01:49:30.970Z,13.40
2018-09-28T01:51:59.305Z,13.40
2018-09-28T01:54:27.627Z,13.40
2018-09-28T01:56:55.936Z,13.30
2018-09-28T01:59:25.340Z,13.30
2018-09-28T02:01:53.642Z,13.20
2018-09-28T02:04:21.982Z,13.10
2018-09-28T02:06:50.290Z,13.10
2018-09-28T02:09:18.634Z,13.10
2018-09-28T02:11:46.947Z,13.10
2018-09-28T02:14:15.251Z,13.10
2018-09-28T02:16:43.629Z,13.10
2018-09-28T02:19:11.997Z,13.10
2018-09-28T02:21:40.344Z,13.00
2018-09-28T02:24:08.773Z,13.00
2018-09-28T02:26:37.140Z,13.00
2018-09-28T02:29:05.575Z,13.00
2018-09-28T02:31:33.883Z,12.90
2018-09-28T02:34:02.215Z,12.90
2018-09-28T02:36:30.533Z,12.90
2018-09-28T02:38:58.845Z,13.00
2018-09-28T02:41:27.126Z,13.00
2018-09-28T02:43:55.458Z,13.00
2018-09-28T02:46:23.806Z,13.00
2018-09-28T02:48:52.128Z,13.10
2018-09-28T02:51:20.427Z,13.00
2018-09-28T02:53:48.704Z,13.00
2018-09-28T02:56:17.023Z,13.10
2018-09-28T02:58:45.316Z,13.10
2018-09-28T03:01:13.668Z,13.10
2018-09-28T03:03:42.012Z,13.10
2018-09-28T03:06:10.371Z,13.10
2018-09-28T03:08:38.628Z,13.10
2018-09-28T03:11:07.037Z,13.10
2018-09-28T03:13:35.356Z,13.10
2018-09-28T03:16:03.705Z,13.10
2018-09-28T03:18:32.009Z,13.10
2018-09-28T03:21:00.325Z,13.10
2018-09-28T03:23:28.611Z,13.10
2018-09-28T03:25:56.969Z,13.10
2018-09-28T03:28:25.227Z,13.00
2018-09-28T03:30:53.538Z,13.00
2018-09-28T03:33:21.812Z,13.00
2018-09-28T03:35:50.160Z,13.00
2018-09-28T03:38:18.437Z,13.00
2018-09-28T03:40:46.772Z,13.00
2018-09-28T03:43:15.078Z,13.00
2018-09-28T03:45:43.391Z,13.00
2018-09-28T03:48:11.786Z,12.90
2018-09-28T03:50:40.125Z,13.00
2018-09-28T03:53:08.443Z,12.90
2018-09-28T03:55:36.830Z,12.90
2018-09-28T03:58:05.119Z,12.90
2018-09-28T04:00:33.465Z,12.90
2018-09-28T04:03:01.795Z,12.80
2018-09-28T04:05:30.120Z,12.90
2018-09-28T04:07:58.455Z,12.90
2018-09-28T04:10:26.799Z,12.90
2018-09-28T04:12:55.081Z,12.90
2018-09-28T04:15:24.262Z,13.00
2018-09-28T04:17:52.860Z,12.90
2018-09-28T04:20:21.191Z,12.90
2018-09-28T04:22:49.580Z,13.00
2018-09-28T04:25:17.889Z,13.00
2018-09-28T04:27:46.210Z,13.00
2018-09-28T04:30:14.540Z,12.90
2018-09-28T04:32:42.869Z,12.90
2018-09-28T04:35:11.217Z,12.90
2018-09-28T04:37:39.565Z,12.80
2018-09-28T04:40:07.889Z,12.80
2018-09-28T04:42:36.275Z,12.70
2018-09-28T04:45:04.659Z,12.70
2018-09-28T04:47:33.059Z,12.70
2018-09-28T04:50:01.348Z,12.70
2018-09-28T04:52:29.681Z,12.70
2018-09-28T04:54:58.086Z,12.70
2018-09-28T04:57:26.443Z,12.70
2018-09-28T04:59:54.760Z,12.70
2018-09-28T05:02:23.115Z,12.70
2018-09-28T05:04:51.438Z,12.80
2018-09-28T05:07:19.734Z,12.80
2018-09-28T05:09:48.062Z,12.80
2018-09-28T05:12:16.358Z,12.90
2018-09-28T05:14:44.637Z,12.90
2018-09-28T05:17:12.956Z,12.90
2018-09-28T05:19:41.245Z,12.90
2018-09-28T05:22:09.631Z,12.90
2018-09-28T05:24:37.918Z,13.00
2018-09-28T05:27:06.265Z,12.90
2018-09-28T05:29:34.611Z,12.90
2018-09-28T05:32:03.071Z,13.00
2018-09-28T05:34:31.296Z,13.00
2018-09-28T05:36:59.695Z,13.00
2018-09-28T05:39:28.051Z,13.00
2018-09-28T05:41:56.332Z,13.00
2018-09-28T05:44:24.647Z,13.10
2018-09-28T05:46:52.960Z,13.10
2018-09-28T05:49:21.240Z,13.10
2018-09-28T05:51:49.561Z,13.10
2018-09-28T05:54:17.842Z,13.10
2018-09-28T05:56:46.148Z,13.20
2018-09-28T05:59:19.741Z,13.10
2018-09-28T06:01:53.673Z,13.10
2018-09-28T06:04:27.348Z,13.10
2018-09-28T06:06:55.629Z,13.20
2018-09-28T06:09:23.905Z,13.20
2018-09-28T06:11:52.192Z,13.30
2018-09-28T06:14:20.486Z,13.30
2018-09-28T06:16:48.792Z,13.30
2018-09-28T06:19:17.097Z,13.40
2018-09-28T06:21:45.489Z,13.40
2018-09-28T06:24:13.850Z,13.50
2018-09-28T06:26:42.125Z,13.70
2018-09-28T06:29:10.430Z,13.80
2018-09-28T06:31:38.764Z,13.90
2018-09-28T06:34:07.072Z,13.80
2018-09-28T06:36:35.396Z,13.80
2018-09-28T06:39:04.983Z,13.80
2018-09-28T06:41:33.277Z,13.80
2018-09-28T06:44:01.554Z,13.80
2018-09-28T06:46:29.843Z,13.90
2018-09-28T06:48:58.198Z,14.00
2018-09-28T06:51:26.606Z,14.00
2018-09-28T06:53:54.844Z,14.10
2018-09-28T06:56:23.199Z,14.10
2018-09-28T06:58:51.488Z,14.20
2018-09-28T07:01:19.779Z,14.20
2018-09-28T07:03:48.105Z,14.10
2018-09-28T07:06:16.409Z,14.10
2018-09-28T07:08:44.699Z,14.20
2018-09-28T07:11:13.045Z,14.30
2018-09-28T07:13:41.377Z,14.30
2018-09-28T07:16:09.751Z,14.30
2018-09-28T07:18:38.039Z,14.20
2018-09-28T07:21:06.460Z,14.40
2018-09-28T07:23:34.777Z,14.40
2018-09-28T07:26:03.071Z,14.60
2018-09-28T07:28:31.404Z,14.70
2018-09-28T07:30:59.690Z,14.90
2018-09-28T07:33:27.985Z,15.10
2018-09-28T07:35:56.278Z,15.30
2018-09-28T07:38:24.595Z,15.50
2018-09-28T07:40:52.871Z,15.90
2018-09-28T07:43:21.763Z,15.90
2018-09-28T07:45:50.148Z,16.20
2018-09-28T07:48:18.493Z,16.20
2018-09-28T07:50:46.764Z,16.10
2018-09-28T07:53:15.113Z,16.00
2018-09-28T07:55:43.489Z,15.90
2018-09-28T07:58:11.779Z,15.90
2018-09-28T08:00:40.081Z,15.90
2018-09-28T08:03:08.740Z,15.80
2018-09-28T08:05:40.943Z,15.90
2018-09-28T08:08:09.258Z,16.10
2018-09-28T08:10:38.198Z,16.20
2018-09-28T08:13:06.629Z,16.30
2018-09-28T08:15:34.971Z,16.60
2018-09-28T08:18:03.422Z,16.90
2018-09-28T08:20:31.814Z,17.20
2018-09-28T08:23:00.475Z,17.30
2018-09-28T08:25:29.129Z,17.30
2018-09-28T08:27:57.767Z,17.20
2018-09-28T08:30:26.261Z,17.20
2018-09-28T08:32:54.708Z,17.70
2018-09-28T08:35:23.210Z,17.90
2018-09-28T08:37:51.686Z,18.30
2018-09-28T08:40:20.311Z,18.80
2018-09-28T08:42:48.868Z,18.90
2018-09-28T08:45:17.449Z,19.00
2018-09-28T08:47:45.945Z,19.20
2018-09-28T08:50:14.482Z,19.20
2018-09-28T08:52:43.031Z,19.10
2018-09-28T08:55:11.617Z,19.10
2018-09-28T08:57:40.193Z,19.00
2018-09-28T09:00:09.029Z,19.30
2018-09-28T09:02:37.610Z,19.40
2018-09-28T09:05:06.125Z,19.70
2018-09-28T09:07:34.833Z,19.20
2018-09-28T09:10:03.334Z,18.90
2018-09-28T09:12:31.796Z,18.60
2018-09-28T09:15:00.433Z,18.40
2018-09-28T09:17:29.010Z,17.90
2018-09-28T09:19:57.588Z,17.70
2018-09-28T09:22:26.169Z,18.20
2018-09-28T09:24:54.828Z,18.20
2018-09-28T09:27:23.431Z,18.20
2018-09-28T09:29:52.524Z,18.10
2018-09-28T09:32:21.587Z,18.50
2018-09-28T09:34:50.280Z,18.90
2018-09-28T09:37:18.937Z,19.50
2018-09-28T09:39:47.613Z,19.70
2018-09-28T09:42:16.098Z,20.00
2018-09-28T09:44:44.785Z,19.80
2018-09-28T09:47:13.439Z,19.60
2018-09-28T09:49:42.255Z,19.60
2018-09-28T09:52:10.929Z,20.00
2018-09-28T09:54:39.594Z,20.00
2018-09-28T09:57:08.145Z,19.70
2018-09-28T09:59:36.801Z,20.00
2018-09-28T10:02:10.844Z,20.20
2018-09-28T10:04:39.466Z,20.60
2018-09-28T10:07:08.284Z,21.10
2018-09-28T10:09:36.974Z,21.50
2018-09-28T10:12:05.619Z,21.80
2018-09-28T10:14:34.377Z,21.80
2018-09-28T10:17:02.933Z,22.10
2018-09-28T10:19:31.845Z,22.50
2018-09-28T10:22:00.399Z,22.50
2018-09-28T10:24:28.985Z,22.80
2018-09-28T10:26:57.412Z,23.30
2018-09-28T10:29:25.945Z,23.30
2018-09-28T10:31:54.296Z,23.70
2018-09-28T10:34:22.829Z,23.20
2018-09-28T10:36:51.258Z,22.60
2018-09-28T10:39:19.807Z,22.40
2018-09-28T10:41:48.216Z,22.70
2018-09-28T10:44:16.730Z,22.40
2018-09-28T10:46:45.222Z,22.50
2018-09-28T10:49:13.709Z,22.70
2018-09-28T10:51:42.544Z,23.00
2018-09-28T10:54:11.258Z,23.60
2018-09-28T10:56:39.879Z,23.70
2018-09-28T10:59:08.750Z,23.80
2018-09-28T11:01:37.432Z,23.60
2018-09-28T11:04:05.873Z,23.60
2018-09-28T11:06:34.318Z,23.50
2018-09-28T11:09:02.790Z,23.50
2018-09-28T11:11:31.168Z,23.50
2018-09-28T11:13:59.649Z,23.70
2018-09-28T11:16:28.079Z,23.80
2018-09-28T11:18:56.593Z,23.70
2018-09-28T11:21:25.061Z,23.30
2018-09-28T11:23:53.666Z,23.50
2018-09-28T11:26:22.116Z,23.70
2018-09-28T11:28:50.573Z,24.00
2018-09-28T11:31:19.108Z,24.20
2018-09-28T11:33:47.711Z,24.50
2018-09-28T11:36:16.203Z,24.20
2018-09-28T11:38:44.720Z,23.70
2018-09-28T11:41:13.375Z,23.50
2018-09-28T11:43:41.775Z,23.40
2018-09-28T11:46:10.257Z,23.10
2018-09-28T11:48:38.711Z,23.20
2018-09-28T11:51:07.190Z,23.40
2018-09-28T11:53:35.628Z,23.80
2018-09-28T11:56:04.099Z,23.70
2018-09-28T11:58:32.469Z,23.60
2018-09-28T12:01:00.912Z,23.00
2018-09-28T12:03:29.354Z,22.80
2018-09-28T12:05:57.760Z,22.60
2018-09-28T12:08:26.128Z,22.70
2018-09-28T12:10:54.601Z,22.40
2018-09-28T12:13:23.072Z,22.60
2018-09-28T12:15:51.450Z,22.80
2018-09-28T12:18:20.020Z,22.70
2018-09-28T12:20:48.730Z,23.00
2018-09-28T12:23:18.123Z,23.10
2018-09-28T12:25:46.539Z,22.80
2018-09-28T12:28:15.115Z,22.60
2018-09-28T12:30:43.569Z,22.50
2018-09-28T12:33:11.958Z,22.50
2018-09-28T12:35:40.542Z,22.50
2018-09-28T12:38:09.138Z,23.00
2018-09-28T12:40:37.549Z,23.50
2018-09-28T12:43:07.043Z,23.40
2018-09-28T12:45:35.462Z,23.70
2018-09-28T12:48:03.942Z,23.80
2018-09-28T12:50:32.721Z,24.20
2018-09-28T12:53:01.176Z,24.40
2018-09-28T12:55:29.626Z,24.30
2018-09-28T12:57:58.140Z,24.30
2018-09-28T13:00:26.711Z,24.50
2018-09-28T13:03:06.517Z,24.70
2018-09-28T13:08:37.060Z,24.60
2018-09-28T13:11:05.541Z,23.70
2018-09-28T13:13:33.892Z,22.90
2018-09-28T13:16:02.260Z,23.20
2018-09-28T13:18:30.671Z,23.80
2018-09-28T13:20:59.029Z,23.90
2018-09-28T13:23:27.424Z,23.80
2018-09-28T13:25:55.837Z,23.70
2018-09-28T13:28:24.259Z,23.90
2018-09-28T13:30:52.765Z,23.80
2018-09-28T13:33:21.126Z,23.70
2018-09-28T13:35:49.479Z,23.50
2018-09-28T13:38:17.874Z,22.50
2018-09-28T13:40:46.339Z,22.00
2018-09-28T13:43:14.884Z,21.90
2018-09-28T13:45:43.236Z,21.80
2018-09-28T13:48:11.658Z,21.60
2018-09-28T13:50:39.992Z,21.40
2018-09-28T13:53:08.358Z,21.60
2018-09-28T13:55:36.763Z,21.60
2018-09-28T13:58:17.077Z,21.80
2018-09-28T14:00:45.490Z,21.60
2018-09-28T14:03:13.811Z,21.20
2018-09-28T14:05:42.216Z,21.30
2018-09-28T14:08:10.628Z,21.40
2018-09-28T14:10:38.945Z,21.30
2018-09-28T14:13:07.551Z,21.20
2018-09-28T14:15:35.920Z,21.10
2018-09-28T14:18:04.325Z,20.70
2018-09-28T14:20:36.167Z,20.60
2018-09-28T14:23:04.532Z,20.90
2018-09-28T14:25:33.068Z,21.00
2018-09-28T14:28:01.465Z,21.40
2018-09-28T14:30:30.643Z,21.40
2018-09-28T14:32:59.882Z,21.10
2018-09-28T14:35:29.093Z,20.90
2018-09-28T14:37:58.461Z,20.70
2018-09-28T14:40:27.734Z,20.30
2018-09-28T14:42:56.954Z,19.90
2018-09-28T14:45:26.159Z,19.40
2018-09-28T14:47:56.022Z,19.20
2018-09-28T14:50:25.147Z,18.90
2018-09-28T14:52:54.158Z,18.90
2018-09-28T14:55:22.675Z,18.80
2018-09-28T14:57:51.046Z,18.90
2018-09-28T15:00:19.921Z,19.10
2018-09-28T15:02:48.294Z,19.40
2018-09-28T15:05:16.744Z,19.60
2018-09-28T15:07:45.251Z,19.70
2018-09-28T15:10:13.732Z,19.60
2018-09-28T15:12:42.430Z,19.40
2018-09-28T15:15:10.986Z,19.10
2018-09-28T15:17:39.532Z,19.30
2018-09-28T15:20:08.026Z,19.20
2018-09-28T15:22:36.632Z,19.30
2018-09-28T15:25:05.087Z,19.00
2018-09-28T15:27:33.735Z,19.10
2018-09-28T15:30:02.928Z,19.00
2018-09-28T15:32:31.711Z,18.90
2018-09-28T15:35:00.460Z,18.90
2018-09-28T15:37:29.457Z,18.70
2018-09-28T15:39:58.008Z,18.60
2018-09-28T15:42:26.632Z,18.60
2018-09-28T15:44:55.165Z,18.40
2018-09-28T15:47:23.609Z,18.20
2018-09-28T15:49:51.976Z,18.20
2018-09-28T15:52:20.400Z,18.20
2018-09-28T15:54:49.261Z,18.20
2018-09-28T15:57:17.822Z,18.10
2018-09-28T15:59:46.524Z,18.00
2018-09-28T16:02:15.228Z,17.80
2018-09-28T16:04:43.982Z,17.30
2018-09-28T16:07:12.573Z,17.40
2018-09-28T16:09:41.145Z,17.30
2018-09-28T16:12:09.933Z,17.40
2018-09-28T16:14:38.479Z,17.40
2018-09-28T16:17:07.044Z,17.40
2018-09-28T16:19:35.619Z,17.30
2018-09-28T16:22:04.302Z,17.20
2018-09-28T16:24:32.958Z,17.20
2018-09-28T16:27:01.567Z,17.00
2018-09-28T16:29:30.309Z,17.00
2018-09-28T16:31:59.130Z,17.00
2018-09-28T16:34:27.834Z,16.80
2018-09-28T16:36:56.308Z,16.50
2018-09-28T16:39:24.738Z,16.40
2018-09-28T16:41:53.202Z,16.30
2018-09-28T16:44:21.747Z,16.20
2018-09-28T16:46:50.355Z,16.10
2018-09-28T16:49:20.755Z,15.90
2018-09-28T16:51:49.306Z,15.80
2018-09-28T16:54:17.912Z,15.80
2018-09-28T16:56:46.568Z,15.70
2018-09-28T16:59:15.193Z,15.60
2018-09-28T17:01:43.825Z,15.50
2018-09-28T17:04:12.445Z,15.50
2018-09-28T17:06:41.187Z,15.40
2018-09-28T17:09:10.528Z,15.30
2018-09-28T17:11:39.119Z,15.20
2018-09-28T17:14:07.577Z,15.10
2018-09-28T17:16:36.041Z,15.00
2018-09-28T17:19:04.617Z,14.90
2018-09-28T17:21:33.147Z,14.90
2018-09-28T17:24:01.698Z,14.90
2018-09-28T17:26:30.140Z,14.90
2018-09-28T17:28:58.599Z,14.70
2018-09-28T17:31:27.045Z,14.40
2018-09-28T17:33:55.522Z,14.40
2018-09-28T17:36:24.119Z,14.40
2018-09-28T17:38:52.527Z,14.30
2018-09-28T17:41:20.946Z,14.30
2018-09-28T17:43:49.409Z,14.20
2018-09-28T17:46:17.761Z,14.00
2018-09-28T17:48:46.264Z,14.10
2018-09-28T17:51:14.607Z,14.10
2018-09-28T17:53:42.967Z,14.20
2018-09-28T17:56:11.346Z,14.10
2018-09-28T17:58:39.671Z,14.20
2018-09-28T18:01:08.316Z,14.20
2018-09-28T18:03:36.687Z,14.10
2018-09-28T18:06:06.426Z,14.10
2018-09-28T18:08:34.858Z,14.10
2018-09-28T18:11:03.969Z,14.20
2018-09-28T18:13:32.310Z,14.10
2018-09-28T18:16:00.682Z,14.00
2018-09-28T18:18:29.049Z,13.90
2018-09-28T18:20:57.411Z,13.80
2018-09-28T18:23:25.948Z,13.80
2018-09-28T18:25:54.329Z,13.80
2018-09-28T18:28:22.798Z,13.80
2018-09-28T18:30:51.219Z,13.80
2018-09-28T18:33:19.622Z,13.80
2018-09-28T18:35:48.033Z,13.70
2018-09-28T18:38:16.410Z,13.50
2018-09-28T18:40:44.779Z,13.50
2018-09-28T18:43:13.104Z,13.50
2018-09-28T18:45:41.567Z,13.60
2018-09-28T18:48:10.048Z,13.50
2018-09-28T18:50:38.503Z,13.50
2018-09-28T18:53:07.508Z,13.40
2018-09-28T18:55:36.115Z,13.40
2018-09-28T18:58:04.469Z,13.20
2018-09-28T19:00:32.961Z,13.20
2018-09-28T19:03:01.332Z,13.10
2018-09-28T19:05:29.916Z,13.10
2018-09-28T19:07:58.312Z,13.00
2018-09-28T19:10:26.676Z,13.00
2018-09-28T19:12:55.190Z,13.00
2018-09-28T19:15:23.481Z,13.00
2018-09-28T19:17:51.951Z,13.00
2018-09-28T19:20:20.278Z,13.00
2018-09-28T19:22:48.858Z,12.90
2018-09-28T19:25:17.162Z,12.90
2018-09-28T19:27:45.538Z,12.90
2018-09-28T19:30:14.006Z,12.80
2018-09-28T19:32:42.573Z,12.70
2018-09-28T19:35:11.255Z,12.80
2018-09-28T19:37:39.903Z,12.60
2018-09-28T19:40:08.360Z,12.50
2018-09-28T19:42:36.902Z,12.50
2018-09-28T19:45:09.137Z,12.50
2018-09-28T19:47:37.647Z,12.40
2018-09-28T19:50:06.145Z,12.40
2018-09-28T19:52:34.758Z,12.50
2018-09-28T19:55:03.185Z,12.40
2018-09-28T19:57:31.860Z,12.40
2018-09-28T20:00:00.418Z,12.40
2018-09-28T20:02:28.914Z,12.30
2018-09-28T20:04:57.314Z,12.30
2018-09-28T20:07:25.728Z,12.30
2018-09-28T20:09:54.259Z,12.30
2018-09-28T20:12:22.680Z,12.20
2018-09-28T20:14:51.144Z,12.10
2018-09-28T20:17:19.685Z,12.10
2018-09-28T20:19:48.190Z,12.10
2018-09-28T20:22:16.619Z,11.90
2018-09-28T20:24:45.103Z,11.90
2018-09-28T20:27:14.560Z,11.90
2018-09-28T20:29:43.117Z,11.80
2018-09-28T20:32:11.629Z,11.70
2018-09-28T20:34:40.262Z,11.70
2018-09-28T20:37:08.969Z,11.70
2018-09-28T20:39:37.526Z,11.60
2018-09-28T20:42:05.984Z,11.50
2018-09-28T20:44:34.375Z,11.50
2018-09-28T20:47:02.881Z,11.50
2018-09-28T20:49:31.635Z,11.40
2018-09-28T20:52:00.291Z,11.40
2018-09-28T20:54:28.930Z,11.40
2018-09-28T20:56:57.428Z,11.20
2018-09-28T20:59:26.035Z,11.10
2018-09-28T21:01:54.463Z,11.00
2018-09-28T21:04:22.919Z,11.10
2018-09-28T21:06:51.488Z,11.30
2018-09-28T21:09:19.898Z,11.40
2018-09-28T21:11:48.447Z,11.40
2018-09-28T21:14:16.933Z,11.40
2018-09-28T21:16:45.562Z,11.40
2018-09-28T21:19:14.011Z,11.40
2018-09-28T21:21:42.402Z,11.30
2018-09-28T21:24:10.929Z,11.20
2018-09-28T21:26:39.351Z,11.10
2018-09-28T21:29:07.840Z,10.90
2018-09-28T21:31:36.322Z,10.80
2018-09-28T21:34:04.765Z,10.70
2018-09-28T21:36:33.144Z,10.70
2018-09-28T21:39:01.620Z,10.70
2018-09-28T21:41:30.010Z,10.70
2018-09-28T21:43:58.432Z,10.60
2018-09-28T21:46:27.687Z,10.60
2018-09-28T21:48:56.141Z,10.60
2018-09-28T21:51:24.515Z,10.50
2018-09-28T21:54:07.961Z,10.50
2018-09-28T21:56:36.392Z,10.40
2018-09-28T21:59:04.855Z,10.40
2018-09-28T22:01:33.304Z,10.30
2018-09-28T22:04:01.800Z,10.30
2018-09-28T22:06:42.281Z,10.20
2018-09-28T22:09:25.753Z,10.20
2018-09-28T22:11:54.144Z,10.20
2018-09-28T22:14:22.732Z,10.10
2018-09-28T22:16:51.168Z,10.10
2018-09-28T22:19:19.562Z,10.10
2018-09-28T22:21:47.998Z,10.00
2018-09-28T22:24:16.495Z,10.00
2018-09-28T22:26:45.605Z,10.10
2018-09-28T22:29:14.079Z,10.00
2018-09-28T22:31:42.481Z,10.00
2018-09-28T22:34:10.973Z,10.00
2018-09-28T22:36:39.426Z,9.90
2018-09-28T22:39:09.643Z,10.00
2018-09-28T22:41:38.241Z,9.90
2018-09-28T22:44:06.900Z,9.90
2018-09-28T22:46:35.321Z,10.00
2018-09-28T22:49:03.976Z,10.00
2018-09-28T22:51:32.429Z,9.90
2018-09-28T22:54:00.909Z,9.80
2018-09-28T22:56:29.413Z,9.80
2018-09-28T22:58:57.824Z,9.80
2018-09-28T23:01:26.262Z,9.80
2018-09-28T23:03:54.695Z,9.70
2018-09-28T23:06:23.109Z,9.70
2018-09-28T23:08:51.591Z,9.70
2018-09-28T23:11:20.054Z,9.60
2018-09-28T23:13:48.544Z,9.60
2018-09-28T23:16:16.989Z,9.60
2018-09-28T23:18:45.432Z,9.60
2018-09-28T23:21:13.814Z,9.50
2018-09-28T23:23:42.293Z,9.50
2018-09-28T23:26:10.702Z,9.40
2018-09-28T23:28:39.202Z,9.40
2018-09-28T23:31:07.812Z,9.40
2018-09-28T23:33:36.220Z,9.40
2018-09-28T23:36:04.703Z,9.40
2018-09-28T23:38:33.111Z,9.30
2018-09-28T23:41:01.586Z,9.30
2018-09-28T23:43:30.087Z,9.30
2018-09-28T23:45:58.486Z,9.30
2018-09-28T23:48:26.845Z,9.20
2018-09-28T23:50:55.267Z,9.20
2018-09-28T23:53:23.774Z,9.10
2018-09-28T23:55:52.198Z,9.10
2018-09-28T23:58:20.597Z,9.10
